Time;durP1;ratioP1;P1;durP2;ratioP2;P2;SDS_P1;SDS_P2;PMS_P1;PMS_P2;Temp;Humidity;BMP_temperature;BMP_pressure;BME280_temperature;BME280_humidity;BME280_pressure;Samples;Min_cycle;Max_cycle;Signal;HPM_P1;HPM_P2
2023/02/10 00:01:13;;;;;;;6.05;4.57;;;;;;;;;;5049767;28;20058;-43
2023/02/10 00:03:39;;;;;;;5.95;3.53;;;;;;;;;;5069896;28;20135;-42
2023/02/10 00:06:06;;;;;;;5.65;3.78;;;;;;;;;;5070427;28;20477;-43
2023/02/10 00:08:32;;;;;;;5.28;3.53;;;;;;;;;;5069989;28;20036;-44
2023/02/10 00:10:59;;;;;;;5.20;3.78;;;;;;;;;;5070672;28;20067;-45
2023/02/10 00:13:25;;;;;;;5.35;3.45;;;;;;;;;;5063128;28;20028;-44
2023/02/10 00:15:51;;;;;;;5.13;3.78;;;;;;;;;;5070933;28;20464;-43
2023/02/10 00:18:17;;;;;;;7.53;4.18;;;;;;;;;;5057150;28;20103;-42
2023/02/10 00:20:43;;;;;;;6.15;3.20;;;;;;;;;;5061796;28;20027;-45
2023/02/10 00:23:09;;;;;;;5.60;3.67;;;;;;;;;;5064324;28;20036;-44
2023/02/10 00:25:36;;;;;;;5.35;3.72;;;;;;;;;;5066596;28;20086;-43
2023/02/10 00:28:02;;;;;;;5.72;4.00;;;;;;;;;;5070791;28;20031;-43
2023/02/10 00:30:28;;;;;;;6.70;4.00;;;;;;;;;;5069698;28;20377;-44
2023/02/10 00:32:54;;;;;;;5.65;4.15;;;;;;;;;;5070648;28;20078;-42
2023/02/10 00:35:20;;;;;;;4.57;3.30;;;;;;;;;;5069533;28;20055;-43
2023/02/10 00:37:46;;;;;;;5.63;3.63;;;;;;;;;;5070249;28;20036;-44
2023/02/10 00:40:12;;;;;;;4.57;3.55;;;;;;;;;;5063857;28;20108;-45
2023/02/10 00:42:38;;;;;;;6.60;3.90;;;;;;;;;;5069630;28;20057;-43
2023/02/10 00:45:04;;;;;;;6.28;3.63;;;;;;;;;;5068492;28;20108;-43
2023/02/10 00:47:30;;;;;;;5.22;3.50;;;;;;;;;;5069165;28;20028;-43
2023/02/10 00:49:56;;;;;;;5.97;3.33;;;;;;;;;;5066937;28;20017;-43
2023/02/10 00:52:23;;;;;;;5.72;3.92;;;;;;;;;;5065886;28;20027;-43
2023/02/10 00:54:49;;;;;;;5.32;3.65;;;;;;;;;;5069272;28;20105;-44
2023/02/10 00:57:15;;;;;;;5.47;3.80;;;;;;;;;;5065433;28;20025;-43
2023/02/10 00:59:41;;;;;;;5.60;3.40;;;;;;;;;;5070408;28;20021;-45
2023/02/10 01:02:08;;;;;;;5.90;3.78;;;;;;;;;;5070488;28;20029;-45
2023/02/10 01:04:34;;;;;;;6.20;4.00;;;;;;;;;;5067661;28;20039;-44
2023/02/10 01:07:00;;;;;;;6.07;3.90;;;;;;;;;;5069530;28;20056;-43
2023/02/10 01:09:26;;;;;;;5.68;3.40;;;;;;;;;;5068626;28;20041;-43
2023/02/10 01:11:52;;;;;;;6.25;4.15;;;;;;;;;;5058301;28;20083;-46
2023/02/10 01:14:18;;;;;;;4.95;3.45;;;;;;;;;;5066399;28;20477;-44
2023/02/10 01:16:44;;;;;;;7.35;3.72;;;;;;;;;;5063756;28;20367;-43
2023/02/10 01:19:11;;;;;;;4.95;3.30;;;;;;;;;;5067294;28;20028;-45
2023/02/10 01:21:38;;;;;;;5.40;3.42;;;;;;;;;;5062972;28;20020;-44
2023/02/10 01:24:04;;;;;;;5.82;3.70;;;;;;;;;;5058124;28;20032;-44
2023/02/10 01:26:30;;;;;;;5.53;3.97;;;;;;;;;;5069553;28;20035;-43
2023/02/10 01:28:56;;;;;;;4.20;3.35;;;;;;;;;;5066694;28;20098;-43
2023/02/10 01:31:22;;;;;;;4.53;3.30;;;;;;;;;;5064655;28;20036;-43
2023/02/10 01:33:51;;;;;;;6.28;3.67;;;;;;;;;;5068292;28;20028;-43
2023/02/10 01:36:21;;;;;;;5.88;3.40;;;;;;;;;;5069369;28;20050;-42
2023/02/10 01:38:47;;;;;;;6.15;3.40;;;;;;;;;;5059836;28;20021;-43
2023/02/10 01:41:14;;;;;;;5.25;3.42;;;;;;;;;;5066780;28;20049;-42
2023/02/10 01:43:55;;;;;;;6.65;3.63;;;;;;;;;;5069066;28;20048;-45
2023/02/10 01:46:21;;;;;;;5.68;3.30;;;;;;;;;;5067402;28;20082;-44
2023/02/10 01:48:48;;;;;;;5.68;3.80;;;;;;;;;;5068532;28;20420;-43
2023/02/10 01:51:14;;;;;;;5.50;3.60;;;;;;;;;;5069212;28;20032;-43
2023/02/10 01:53:42;;;;;;;4.22;3.17;;;;;;;;;;5065844;28;20041;-43
2023/02/10 01:56:08;;;;;;;4.28;3.28;;;;;;;;;;5069227;28;20025;-43
2023/02/10 01:58:35;;;;;;;5.13;3.78;;;;;;;;;;5067673;28;20024;-43
2023/02/10 02:01:01;;;;;;;5.65;3.92;;;;;;;;;;5059036;28;20075;-43
2023/02/10 02:03:27;;;;;;;5.90;3.47;;;;;;;;;;5068177;28;20043;-43
2023/02/10 02:05:53;;;;;;;5.90;3.67;;;;;;;;;;5061761;28;20502;-43
2023/02/10 02:08:21;;;;;;;4.65;3.15;;;;;;;;;;5055859;28;20021;-42
2023/02/10 02:10:47;;;;;;;6.63;3.65;;;;;;;;;;5072358;28;20060;-44
2023/02/10 02:13:17;;;;;;;4.03;2.90;;;;;;;;;;5066852;28;20772;-43
2023/02/10 02:15:43;;;;;;;4.10;2.95;;;;;;;;;;5063756;28;20029;-44
2023/02/10 02:18:15;;;;;;;5.53;3.78;;;;;;;;;;5064973;28;20374;-43
2023/02/10 02:20:41;;;;;;;;;;;;;;;;;;5073615;28;20029;-44
2023/02/10 02:23:26;;;;;;;5.22;3.60;;;;;;;;;;5065356;28;19909;-42
2023/02/10 02:26:12;;;;;;;4.03;3.38;;;;;;;;;;5048635;28;20062;-44
2023/02/10 02:31:49;;;;;;;6.43;4.18;;;;;;;;;;4987287;28;20026;-42
2023/02/10 02:34:24;;;;;;;6.20;4.13;;;;;;;;;;5057554;28;20389;-43
2023/02/10 02:36:53;;;;;;;5.47;4.07;;;;;;;;;;5055616;28;20027;-44
2023/02/10 02:39:19;;;;;;;4.82;3.20;;;;;;;;;;5071044;28;20028;-46
2023/02/10 02:41:45;;;;;;;4.85;3.38;;;;;;;;;;5067765;28;20033;-43
2023/02/10 02:44:11;;;;;;;5.68;3.60;;;;;;;;;;5070606;28;20036;-44
2023/02/10 02:46:47;;;;;;;4.47;3.28;;;;;;;;;;5060004;28;20060;-43
2023/02/10 02:49:16;;;;;;;4.47;3.40;;;;;;;;;;5070750;28;20037;-43
2023/02/10 02:51:51;;;;;;;7.78;4.00;;;;;;;;;;5072598;28;20124;-42
2023/02/10 02:54:22;;;;;;;5.25;3.33;;;;;;;;;;5069021;28;20029;-42
2023/02/10 02:56:54;;;;;;;5.50;3.80;;;;;;;;;;5071926;28;20034;-43
2023/02/10 02:59:30;;;;;;;5.40;3.30;;;;;;;;;;5070113;28;20024;-43
2023/02/10 03:01:58;;;;;;;4.68;3.03;;;;;;;;;;5054741;28;20048;-43
2023/02/10 03:04:27;;;;;;;7.18;4.13;;;;;;;;;;5066883;28;20033;-45
2023/02/10 03:06:53;;;;;;;5.57;3.75;;;;;;;;;;5066026;28;20389;-43
2023/02/10 03:09:19;;;;;;;4.13;3.28;;;;;;;;;;5067552;28;20060;-46
2023/02/10 03:11:45;;;;;;;4.72;3.38;;;;;;;;;;5068736;28;20028;-47
2023/02/10 03:14:11;;;;;;;5.03;3.28;;;;;;;;;;5065923;28;20060;-45
2023/02/10 03:16:37;;;;;;;5.15;3.85;;;;;;;;;;5070285;28;20113;-43
2023/02/10 03:19:02;;;;;;;6.35;3.88;;;;;;;;;;5071717;28;20370;-43
2023/02/10 03:21:29;;;;;;;6.80;3.90;;;;;;;;;;5068089;28;20029;-46
2023/02/10 03:23:55;;;;;;;5.30;3.53;;;;;;;;;;5067510;28;20037;-45
2023/02/10 03:26:20;;;;;;;5.72;3.75;;;;;;;;;;5070612;28;20042;-44
2023/02/10 03:28:46;;;;;;;5.18;3.83;;;;;;;;;;5071275;28;20033;-47
2023/02/10 03:31:12;;;;;;;5.63;4.00;;;;;;;;;;5075522;28;20111;-43
2023/02/10 03:33:38;;;;;;;6.22;3.78;;;;;;;;;;5070654;28;20763;-45
2023/02/10 03:36:05;;;;;;;5.68;3.92;;;;;;;;;;5071976;28;20377;-43
2023/02/10 03:38:31;;;;;;;4.63;3.40;;;;;;;;;;5070608;28;20485;-44
2023/02/10 03:40:57;;;;;;;5.68;3.78;;;;;;;;;;5071359;28;20150;-44
2023/02/10 03:43:23;;;;;;;5.80;4.45;;;;;;;;;;5070575;28;20404;-44
2023/02/10 03:45:49;;;;;;;5.25;4.05;;;;;;;;;;5059796;28;20028;-43
2023/02/10 03:48:15;;;;;;;8.35;3.90;;;;;;;;;;5057591;28;20448;-42
2023/02/10 03:50:41;;;;;;;5.63;3.80;;;;;;;;;;5064855;28;20030;-43
2023/02/10 03:53:08;;;;;;;5.82;3.72;;;;;;;;;;5062802;28;20020;-44
2023/02/10 03:55:34;;;;;;;4.45;3.40;;;;;;;;;;5066631;28;20217;-44
2023/02/10 03:58:03;;;;;;;7.78;4.60;;;;;;;;;;5071719;28;20149;-44
2023/02/10 04:00:30;;;;;;;8.05;5.30;;;;;;;;;;5062194;28;20037;-45
2023/02/10 04:02:56;;;;;;;3.95;3.35;;;;;;;;;;5065242;28;20025;-43
2023/02/10 04:05:22;;;;;;;5.43;3.65;;;;;;;;;;5067300;28;20055;-42
2023/02/10 04:07:48;;;;;;;6.78;4.28;;;;;;;;;;5071239;28;20039;-44
2023/02/10 04:10:14;;;;;;;4.40;3.47;;;;;;;;;;5070521;28;20044;-42
2023/02/10 04:12:40;;;;;;;7.05;3.60;;;;;;;;;;5063577;28;20029;-42
2023/02/10 04:15:06;;;;;;;5.15;3.83;;;;;;;;;;5064752;28;20035;-42
2023/02/10 04:17:32;;;;;;;7.20;3.70;;;;;;;;;;5066613;28;20040;-43
2023/02/10 04:19:58;;;;;;;5.97;3.55;;;;;;;;;;5064518;28;20024;-43
2023/02/10 04:22:24;;;;;;;5.20;4.00;;;;;;;;;;5064876;28;20028;-42
2023/02/10 04:24:50;;;;;;;6.20;3.85;;;;;;;;;;5066625;28;20028;-43
2023/02/10 04:27:16;;;;;;;5.15;3.33;;;;;;;;;;5065411;28;20078;-42
2023/02/10 04:29:42;;;;;;;5.13;3.80;;;;;;;;;;5070127;28;20565;-42
2023/02/10 04:32:08;;;;;;;6.15;3.97;;;;;;;;;;5070849;28;20029;-44
2023/02/10 04:34:35;;;;;;;5.43;3.95;;;;;;;;;;5061902;28;20620;-42
2023/02/10 04:37:01;;;;;;;5.57;3.80;;;;;;;;;;5067060;28;20024;-42
2023/02/10 04:39:27;;;;;;;5.47;3.80;;;;;;;;;;5059914;28;20025;-42
2023/02/10 04:41:53;;;;;;;5.07;3.60;;;;;;;;;;5062254;28;20032;-43
2023/02/10 04:44:19;;;;;;;5.45;3.50;;;;;;;;;;5069160;28;20032;-43
2023/02/10 04:46:45;;;;;;;7.05;3.80;;;;;;;;;;5070796;28;20021;-45
2023/02/10 04:49:11;;;;;;;5.95;4.22;;;;;;;;;;5069120;28;20036;-43
2023/02/10 04:51:37;;;;;;;4.95;3.42;;;;;;;;;;5070053;28;20028;-43
2023/02/10 04:54:03;;;;;;;5.43;3.75;;;;;;;;;;5068708;28;20082;-42
2023/02/10 04:56:29;;;;;;;5.78;3.85;;;;;;;;;;5065550;28;20419;-42
2023/02/10 04:58:55;;;;;;;6.05;3.60;;;;;;;;;;5069997;28;20032;-42
2023/02/10 05:01:21;;;;;;;4.28;3.42;;;;;;;;;;5066327;28;20104;-42
2023/02/10 05:03:47;;;;;;;4.80;3.60;;;;;;;;;;5066636;28;20055;-42
2023/02/10 05:06:14;;;;;;;5.40;3.70;;;;;;;;;;5065775;28;20143;-42
2023/02/10 05:08:41;;;;;;;7.78;3.83;;;;;;;;;;5064226;28;20058;-44
2023/02/10 05:11:08;;;;;;;4.05;3.22;;;;;;;;;;5060000;28;20025;-43
2023/02/10 05:13:34;;;;;;;4.93;3.70;;;;;;;;;;5068948;28;20081;-42
2023/02/10 05:16:02;;;;;;;4.95;3.58;;;;;;;;;;5059929;28;20492;-42
2023/02/10 05:18:28;;;;;;;5.32;3.88;;;;;;;;;;5068365;28;20032;-43
2023/02/10 05:20:54;;;;;;;6.32;4.20;;;;;;;;;;5068439;28;20410;-44
2023/02/10 05:23:20;;;;;;;4.97;3.60;;;;;;;;;;5059260;28;20033;-43
2023/02/10 05:25:47;;;;;;;4.90;3.70;;;;;;;;;;5070349;28;20020;-43
2023/02/10 05:28:13;;;;;;;5.85;3.28;;;;;;;;;;5070587;28;20055;-42
2023/02/10 05:30:39;;;;;;;8.80;4.13;;;;;;;;;;5069709;28;20481;-43
2023/02/10 05:33:05;;;;;;;5.47;3.75;;;;;;;;;;5062183;28;20036;-43
2023/02/10 05:35:31;;;;;;;6.22;4.00;;;;;;;;;;5067398;28;20029;-44
2023/02/10 05:37:57;;;;;;;5.47;3.40;;;;;;;;;;5061471;28;20451;-46
2023/02/10 05:40:23;;;;;;;5.95;3.63;;;;;;;;;;5071576;28;20032;-43
2023/02/10 05:42:50;;;;;;;5.38;3.42;;;;;;;;;;5066815;28;20029;-42
2023/02/10 05:45:15;;;;;;;5.22;3.33;;;;;;;;;;5071120;28;20028;-42
2023/02/10 05:47:42;;;;;;;4.63;3.20;;;;;;;;;;5070576;28;20106;-43
2023/02/10 05:50:08;;;;;;;5.20;3.65;;;;;;;;;;5070161;28;20027;-42
2023/02/10 05:52:34;;;;;;;4.82;3.58;;;;;;;;;;5073493;28;20021;-43
2023/02/10 05:55:00;;;;;;;4.85;3.85;;;;;;;;;;5061585;28;20533;-43
2023/02/10 05:57:26;;;;;;;6.70;3.58;;;;;;;;;;5063555;28;20025;-43
2023/02/10 05:59:52;;;;;;;4.63;3.40;;;;;;;;;;5071325;28;20090;-44
2023/02/10 06:02:18;;;;;;;5.72;3.70;;;;;;;;;;5046795;28;20028;-42
2023/02/10 06:04:44;;;;;;;5.03;3.53;;;;;;;;;;5068214;28;20077;-43
2023/02/10 06:07:09;;;;;;;6.35;3.70;;;;;;;;;;5070884;28;20028;-43
2023/02/10 06:09:36;;;;;;;6.15;4.18;;;;;;;;;;5068599;28;20112;-44
2023/02/10 06:12:02;;;;;;;5.68;3.45;;;;;;;;;;5067454;28;20036;-44
2023/02/10 06:14:28;;;;;;;6.25;3.65;;;;;;;;;;5066668;28;20109;-42
2023/02/10 06:16:54;;;;;;;4.45;3.50;;;;;;;;;;5065012;28;20414;-43
2023/02/10 06:19:20;;;;;;;5.00;3.20;;;;;;;;;;5068381;28;20029;-42
2023/02/10 06:21:46;;;;;;;3.70;2.95;;;;;;;;;;5073053;28;20123;-42
2023/02/10 06:24:12;;;;;;;4.45;3.40;;;;;;;;;;5062453;28;20033;-42
2023/02/10 06:26:38;;;;;;;5.85;3.67;;;;;;;;;;5063550;28;20724;-43
2023/02/10 06:29:04;;;;;;;7.13;3.70;;;;;;;;;;5059220;28;20077;-42
2023/02/10 06:31:30;;;;;;;5.72;3.88;;;;;;;;;;5072189;28;20025;-42
2023/02/10 06:33:56;;;;;;;8.32;3.67;;;;;;;;;;5069102;28;20054;-44
2023/02/10 06:36:22;;;;;;;5.47;3.55;;;;;;;;;;5069894;28;20036;-43
2023/02/10 06:38:48;;;;;;;5.78;3.83;;;;;;;;;;5065278;28;20390;-43
2023/02/10 06:41:14;;;;;;;4.75;3.22;;;;;;;;;;5069927;28;20040;-42
2023/02/10 06:43:40;;;;;;;3.90;3.10;;;;;;;;;;5071594;28;20036;-45
2023/02/10 06:46:06;;;;;;;5.85;3.25;;;;;;;;;;5069596;28;20031;-46
2023/02/10 06:48:32;;;;;;;5.07;3.40;;;;;;;;;;5064917;28;20064;-43
2023/02/10 06:50:58;;;;;;;5.60;3.00;;;;;;;;;;5066832;28;20048;-45
2023/02/10 06:53:24;;;;;;;6.18;3.58;;;;;;;;;;5066212;28;20024;-43
2023/02/10 06:55:50;;;;;;;5.45;3.90;;;;;;;;;;5070019;28;20042;-43
2023/02/10 06:58:16;;;;;;;10.65;3.55;;;;;;;;;;5071808;28;20016;-43
2023/02/10 07:00:43;;;;;;;6.32;4.15;;;;;;;;;;5062589;28;20043;-42
2023/02/10 07:03:09;;;;;;;4.25;3.22;;;;;;;;;;5066097;28;20024;-43
2023/02/10 07:05:35;;;;;;;7.03;2.95;;;;;;;;;;5070660;28;20108;-43
2023/02/10 07:08:03;;;;;;;7.28;3.17;;;;;;;;;;5069187;28;20023;-42
2023/02/10 07:10:30;;;;;;;6.30;3.00;;;;;;;;;;5070080;28;20044;-42
2023/02/10 07:12:56;;;;;;;7.93;3.20;;;;;;;;;;5071712;28;20059;-42
2023/02/10 07:15:22;;;;;;;5.40;3.28;;;;;;;;;;5070517;28;20055;-42
2023/02/10 07:17:48;;;;;;;4.57;3.13;;;;;;;;;;5067575;28;20020;-43
2023/02/10 07:20:14;;;;;;;5.97;3.33;;;;;;;;;;5067456;28;20043;-42
2023/02/10 07:22:40;;;;;;;6.50;3.20;;;;;;;;;;5056693;28;20025;-42
2023/02/10 07:25:06;;;;;;;8.05;3.45;;;;;;;;;;5069429;28;20478;-42
2023/02/10 07:27:32;;;;;;;6.07;3.78;;;;;;;;;;5070691;28;20489;-43
2023/02/10 07:29:58;;;;;;;4.78;3.13;;;;;;;;;;5070719;28;20028;-42
2023/02/10 07:32:24;;;;;;;7.20;3.83;;;;;;;;;;5064869;28;20036;-42
2023/02/10 07:34:51;;;;;;;5.25;3.40;;;;;;;;;;5060223;28;20060;-43
2023/02/10 07:37:17;;;;;;;5.47;3.72;;;;;;;;;;5056188;28;20033;-42
2023/02/10 07:39:43;;;;;;;4.50;3.45;;;;;;;;;;5070346;28;20024;-42
2023/02/10 07:42:09;;;;;;;4.82;3.55;;;;;;;;;;5071938;28;20020;-42
2023/02/10 07:44:35;;;;;;;6.15;3.65;;;;;;;;;;5069767;28;20077;-42
2023/02/10 07:47:01;;;;;;;5.43;3.67;;;;;;;;;;5050901;28;20021;-42
2023/02/10 07:49:28;;;;;;;5.28;3.63;;;;;;;;;;5069208;28;20028;-43
2023/02/10 07:51:55;;;;;;;5.20;3.33;;;;;;;;;;5069160;28;20158;-42
2023/02/10 07:54:21;;;;;;;6.65;4.18;;;;;;;;;;5065860;28;20385;-42
2023/02/10 07:56:47;;;;;;;5.85;3.55;;;;;;;;;;5071409;28;20114;-42
2023/02/10 07:59:13;;;;;;;5.55;3.50;;;;;;;;;;5062796;28;20029;-42
2023/02/10 08:01:42;;;;;;;6.65;3.97;;;;;;;;;;5053922;28;20123;-42
2023/02/10 08:04:12;;;;;;;6.40;3.80;;;;;;;;;;5069314;28;20032;-42
2023/02/10 08:06:38;;;;;;;6.18;3.28;;;;;;;;;;5066879;28;20390;-42
2023/02/10 08:09:04;;;;;;;5.85;3.72;;;;;;;;;;5070167;28;20128;-42
2023/02/10 08:11:30;;;;;;;4.22;3.50;;;;;;;;;;5069610;28;20021;-42
2023/02/10 08:13:56;;;;;;;6.47;3.90;;;;;;;;;;5070274;28;20047;-42
2023/02/10 08:16:22;;;;;;;5.00;3.20;;;;;;;;;;5067623;28;20104;-43
2023/02/10 08:18:48;;;;;;;6.30;3.80;;;;;;;;;;5068241;28;20028;-42
2023/02/10 08:21:14;;;;;;;4.70;3.20;;;;;;;;;;5066547;28;20095;-42
2023/02/10 08:23:40;;;;;;;7.50;3.92;;;;;;;;;;5069721;28;20040;-43
2023/02/10 08:26:07;;;;;;;5.25;3.75;;;;;;;;;;5065887;28;20028;-42
2023/02/10 08:28:34;;;;;;;5.25;3.42;;;;;;;;;;5067830;28;20078;-42
2023/02/10 08:31:01;;;;;;;5.30;3.72;;;;;;;;;;5059719;28;20043;-42
2023/02/10 08:33:27;;;;;;;6.55;4.18;;;;;;;;;;5063364;28;20025;-42
2023/02/10 08:35:53;;;;;;;7.07;4.38;;;;;;;;;;5065884;28;20048;-43
2023/02/10 08:38:19;;;;;;;5.22;3.75;;;;;;;;;;5065786;28;20048;-42
2023/02/10 08:40:45;;;;;;;5.63;4.30;;;;;;;;;;5067223;28;20032;-43
2023/02/10 08:43:11;;;;;;;5.90;3.42;;;;;;;;;;5070336;28;20035;-42
2023/02/10 08:45:40;;;;;;;5.10;3.50;;;;;;;;;;5066092;28;20104;-42
2023/02/10 08:48:06;;;;;;;4.82;3.65;;;;;;;;;;5070748;28;20024;-42
2023/02/10 08:50:32;;;;;;;6.10;3.83;;;;;;;;;;5061851;28;20041;-44
2023/02/10 08:52:58;;;;;;;6.60;3.63;;;;;;;;;;5057610;28;20021;-42
2023/02/10 08:55:24;;;;;;;4.60;3.40;;;;;;;;;;5058180;28;20497;-42
2023/02/10 08:57:50;;;;;;;5.95;3.75;;;;;;;;;;5066691;28;20063;-42
2023/02/10 09:00:16;;;;;;;7.03;4.00;;;;;;;;;;5067317;28;20027;-43
2023/02/10 09:02:42;;;;;;;8.77;4.40;;;;;;;;;;5059873;28;20389;-42
2023/02/10 09:05:08;;;;;;;6.45;4.10;;;;;;;;;;5069525;28;20033;-43
2023/02/10 09:07:34;;;;;;;10.35;4.57;;;;;;;;;;5067276;28;20181;-42
2023/02/10 09:10:00;;;;;;;7.72;3.60;;;;;;;;;;5050511;28;20506;-44
2023/02/10 09:12:26;;;;;;;9.23;4.03;;;;;;;;;;5068157;28;20074;-42
2023/02/10 09:14:52;;;;;;;8.80;4.57;;;;;;;;;;5071859;28;20035;-42
2023/02/10 09:17:18;;;;;;;9.68;3.78;;;;;;;;;;5063760;28;20418;-42
2023/02/10 09:19:43;;;;;;;7.70;4.25;;;;;;;;;;5070715;28;20036;-42
2023/02/10 09:22:09;;;;;;;8.10;4.38;;;;;;;;;;5060961;28;20028;-42
2023/02/10 09:24:35;;;;;;;6.22;3.97;;;;;;;;;;5072523;28;20086;-42
2023/02/10 09:27:01;;;;;;;6.88;4.18;;;;;;;;;;5065545;28;20489;-43
2023/02/10 09:29:28;;;;;;;6.60;4.07;;;;;;;;;;5057426;28;20025;-42
2023/02/10 09:31:53;;;;;;;8.23;3.97;;;;;;;;;;5073567;28;20476;-42
2023/02/10 09:34:19;;;;;;;5.80;3.67;;;;;;;;;;5072063;28;20029;-43
2023/02/10 09:36:46;;;;;;;6.60;3.80;;;;;;;;;;5070887;28;20397;-44
2023/02/10 09:39:12;;;;;;;8.98;5.45;;;;;;;;;;5069094;28;20045;-42
2023/02/10 09:41:37;;;;;;;8.30;3.75;;;;;;;;;;5072805;28;20029;-42
2023/02/10 09:44:09;;;;;;;7.72;4.40;;;;;;;;;;5073503;28;20104;-43
2023/02/10 09:46:55;;;;;;;7.45;4.45;;;;;;;;;;5061468;28;20028;-42
2023/02/10 09:49:40;;;;;;;5.80;4.13;;;;;;;;;;5068728;28;20032;-42
2023/02/10 09:52:24;;;;;;;7.68;4.03;;;;;;;;;;5069890;28;20028;-42
2023/02/10 09:54:50;;;;;;;7.88;3.80;;;;;;;;;;5070352;28;20434;-42
2023/02/10 09:57:21;;;;;;;8.32;4.72;;;;;;;;;;5073251;28;20067;-42
2023/02/10 09:59:48;;;;;;;8.63;5.00;;;;;;;;;;5073406;28;20020;-42
2023/02/10 10:02:18;;;;;;;6.85;4.57;;;;;;;;;;5078008;28;20033;-43
2023/02/10 10:04:45;;;;;;;8.68;4.75;;;;;;;;;;5070429;28;20508;-43
2023/02/10 10:07:20;;;;;;;9.55;4.90;;;;;;;;;;5071534;28;20063;-42
2023/02/10 10:09:47;;;;;;;8.00;4.03;;;;;;;;;;5070121;28;20044;-42
2023/02/10 10:12:20;;;;;;;8.20;4.22;;;;;;;;;;5069619;28;20389;-42
2023/02/10 10:14:47;;;;;;;8.80;4.55;;;;;;;;;;5070408;28;20036;-42
2023/02/10 10:17:31;;;;;;;7.45;4.82;;;;;;;;;;5073567;28;20066;-42
2023/02/10 10:20:03;;;;;;;7.57;4.72;;;;;;;;;;5073064;28;20028;-42
2023/02/10 10:22:29;;;;;;;;;;;;;;;;;;5066699;28;20082;-42
2023/02/10 10:25:14;;;;;;;8.35;4.40;;;;;;;;;;5072284;28;19920;-42
2023/02/10 10:27:42;;;;;;;11.10;5.13;;;;;;;;;;5071964;28;20029;-42
2023/02/10 10:30:15;;;;;;;7.63;4.60;;;;;;;;;;5058717;28;20067;-42
2023/02/10 10:32:45;;;;;;;6.57;4.65;;;;;;;;;;5062224;28;20029;-42
2023/02/10 10:35:30;;;;;;;6.63;4.63;;;;;;;;;;5066921;28;20064;-42
2023/02/10 10:37:57;;;;;;;7.03;4.47;;;;;;;;;;5078547;28;20381;-42
2023/02/10 10:40:26;;;;;;;7.82;4.57;;;;;;;;;;5069950;28;20056;-42
2023/02/10 10:42:58;;;;;;;8.13;4.18;;;;;;;;;;5071017;28;20373;-43
2023/02/10 10:45:36;;;;;;;7.80;5.00;;;;;;;;;;5069217;28;20024;-42
2023/02/10 10:48:10;;;;;;;7.10;4.45;;;;;;;;;;5061866;28;20037;-42
2023/02/10 10:50:36;;;;;;;6.85;4.35;;;;;;;;;;5068191;28;20021;-42
2023/02/10 10:53:05;;;;;;;7.60;4.68;;;;;;;;;;5064828;28;20024;-42
2023/02/10 10:55:39;;;;;;;6.45;5.32;;;;;;;;;;5069315;28;20500;-42
2023/02/10 10:58:11;;;;;;;8.13;5.30;;;;;;;;;;5064013;28;20107;-42
2023/02/10 11:00:37;;;;;;;7.70;4.50;;;;;;;;;;5071166;28;20016;-42
2023/02/10 11:03:04;;;;;;;8.93;6.13;;;;;;;;;;5070434;28;20020;-42
2023/02/10 11:05:36;;;;;;;7.25;4.63;;;;;;;;;;5072025;28;20032;-42
2023/02/10 11:08:04;;;;;;;6.85;4.72;;;;;;;;;;5069661;28;20035;-44
2023/02/10 11:10:48;;;;;;;6.90;4.07;;;;;;;;;;5055150;27;20056;-43
2023/02/10 11:13:21;;;;;;;6.32;4.80;;;;;;;;;;5046850;28;20371;-42
2023/02/10 11:15:47;;;;;;;7.28;4.80;;;;;;;;;;5043302;28;20075;-42
2023/02/10 11:18:18;;;;;;;6.22;4.38;;;;;;;;;;5050528;28;20025;-43
2023/02/10 11:20:53;;;;;;;7.25;5.07;;;;;;;;;;5051836;28;20055;-42
2023/02/10 11:23:19;;;;;;;7.57;4.18;;;;;;;;;;5044753;28;20025;-42
2023/02/10 11:25:56;;;;;;;6.80;5.22;;;;;;;;;;5044406;28;20029;-42
2023/02/10 11:28:25;;;;;;;6.78;4.43;;;;;;;;;;5049964;28;20055;-42
2023/02/10 11:30:55;;;;;;;7.82;4.35;;;;;;;;;;5050931;28;20104;-42
2023/02/10 11:33:23;;;;;;;8.10;4.97;;;;;;;;;;5051413;28;20429;-43
2023/02/10 11:35:52;;;;;;;8.00;4.55;;;;;;;;;;5047509;28;20029;-42
2023/02/10 11:38:20;;;;;;;5.25;4.20;;;;;;;;;;5053292;28;20020;-42
2023/02/10 11:40:49;;;;;;;8.70;5.00;;;;;;;;;;5047986;28;20092;-44
2023/02/10 11:43:16;;;;;;;6.85;4.40;;;;;;;;;;5043266;28;20378;-43
2023/02/10 11:45:52;;;;;;;7.18;4.60;;;;;;;;;;5050615;28;20044;-42
2023/02/10 11:48:18;;;;;;;7.05;4.70;;;;;;;;;;5050824;28;20025;-42
2023/02/10 11:50:44;;;;;;;7.88;4.97;;;;;;;;;;5050731;28;20041;-42
2023/02/10 11:53:23;;;;;;;7.55;4.50;;;;;;;;;;5046144;28;20052;-44
2023/02/10 11:55:53;;;;;;;7.53;4.80;;;;;;;;;;5047362;28;20037;-42
2023/02/10 12:01:24;;;;;;;6.57;4.25;;;;;;;;;;5047853;28;20545;-43
2023/02/10 12:03:53;;;;;;;9.35;4.50;;;;;;;;;;5048943;28;20064;-43
2023/02/10 12:06:19;;;;;;;6.07;4.35;;;;;;;;;;5050056;28;20094;-43
2023/02/10 12:08:53;;;;;;;7.43;4.20;;;;;;;;;;5049391;28;20041;-43
2023/02/10 12:11:37;;;;;;;6.38;4.43;;;;;;;;;;5066635;28;20033;-44
2023/02/10 12:14:22;;;;;;;10.07;4.90;;;;;;;;;;5066479;28;20108;-44
2023/02/10 12:16:51;;;;;;;6.35;4.45;;;;;;;;;;5070105;28;20033;-44
2023/02/10 12:19:29;;;;;;;5.65;4.38;;;;;;;;;;5069892;28;20033;-43
2023/02/10 12:22:05;;;;;;;8.93;4.88;;;;;;;;;;5065036;28;20040;-43
2023/02/10 12:24:31;;;;;;;5.65;4.47;;;;;;;;;;5067430;28;20041;-45
2023/02/10 12:27:12;;;;;;;8.02;4.82;;;;;;;;;;5058564;28;20025;-43
2023/02/10 12:29:54;;;;;;;6.30;4.07;;;;;;;;;;5062129;28;20493;-44
2023/02/10 12:32:38;;;;;;;7.27;4.33;;;;;;;;;;5061663;28;20380;-45
2023/02/10 12:35:13;;;;;;;7.72;4.47;;;;;;;;;;5064997;28;20064;-44
2023/02/10 12:37:52;;;;;;;6.65;3.90;;;;;;;;;;5061288;28;20405;-43
2023/02/10 12:40:18;;;;;;;6.10;4.53;;;;;;;;;;5057865;28;20079;-43
2023/02/10 12:42:47;;;;;;;7.20;4.05;;;;;;;;;;5065930;28;20037;-44
2023/02/10 12:45:13;;;;;;;6.57;4.20;;;;;;;;;;5066496;28;20032;-45
2023/02/10 12:47:45;;;;;;;5.65;4.22;;;;;;;;;;5068480;28;20039;-43
2023/02/10 12:50:29;;;;;;;7.03;4.07;;;;;;;;;;5065267;28;20485;-43
2023/02/10 12:53:16;;;;;;;7.93;4.40;;;;;;;;;;5067859;28;20027;-45
2023/02/10 12:55:49;;;;;;;6.15;4.25;;;;;;;;;;5049073;28;20055;-44
2023/02/10 12:58:18;;;;;;;7.97;4.20;;;;;;;;;;5067663;28;20028;-43
2023/02/10 13:00:47;;;;;;;8.50;4.43;;;;;;;;;;5062473;28;20095;-44
2023/02/10 13:03:19;;;;;;;8.07;4.00;;;;;;;;;;5069751;28;20028;-44
2023/02/10 13:05:50;;;;;;;7.07;4.22;;;;;;;;;;5066780;28;20036;-44
2023/02/10 13:08:36;;;;;;;5.30;3.63;;;;;;;;;;5068753;28;20539;-42
2023/02/10 13:11:26;;;;;;;7.70;3.58;;;;;;;;;;5040962;28;20397;-43
2023/02/10 13:13:53;;;;;;;6.00;4.03;;;;;;;;;;5047949;28;20060;-43
2023/02/10 13:16:21;;;;;;;6.82;3.63;;;;;;;;;;5039611;28;20025;-44
2023/02/10 13:18:54;;;;;;;8.45;3.80;;;;;;;;;;5046159;28;20029;-44
2023/02/10 13:21:27;;;;;;;5.50;3.70;;;;;;;;;;5049021;28;20410;-44
2023/02/10 13:23:56;;;;;;;6.25;3.45;;;;;;;;;;5049741;28;20033;-43
2023/02/10 13:26:40;;;;;;;6.82;3.53;;;;;;;;;;5046893;28;20031;-43
2023/02/10 13:29:06;;;;;;;5.60;4.30;;;;;;;;;;5052964;28;20052;-43
2023/02/10 13:31:41;;;;;;;7.55;3.28;;;;;;;;;;5049410;28;20497;-46
2023/02/10 13:34:19;;;;;;;8.50;4.05;;;;;;;;;;5049841;28;20049;-45
2023/02/10 13:36:47;;;;;;;7.78;4.30;;;;;;;;;;5049615;28;20475;-45
2023/02/10 13:39:17;;;;;;;6.32;3.47;;;;;;;;;;5045190;28;20025;-43
2023/02/10 13:41:46;;;;;;;6.30;3.65;;;;;;;;;;5050696;28;20025;-43
2023/02/10 13:44:24;;;;;;;6.93;4.10;;;;;;;;;;5050670;28;20041;-44
2023/02/10 13:46:56;;;;;;;6.95;4.40;;;;;;;;;;5045734;28;20351;-43
2023/02/10 13:49:23;;;;;;;6.00;3.53;;;;;;;;;;5049384;28;20058;-43
2023/02/10 13:51:50;;;;;;;7.85;4.00;;;;;;;;;;5050650;28;20032;-45
2023/02/10 13:54:30;;;;;;;9.85;4.53;;;;;;;;;;5049980;28;20028;-42
2023/02/10 13:56:57;;;;;;;8.05;4.45;;;;;;;;;;5049032;28;20029;-44
2023/02/10 13:59:40;;;;;;;11.02;4.70;;;;;;;;;;5049757;28;20389;-43
2023/02/10 14:02:13;;;;;;;7.00;4.60;;;;;;;;;;5052380;28;20028;-41
2023/02/10 14:04:41;;;;;;;12.13;5.53;;;;;;;;;;5048432;28;20107;-42
2023/02/10 14:07:16;;;;;;;11.43;6.00;;;;;;;;;;5049363;28;20027;-42
2023/02/10 14:09:42;;;;;;;9.38;5.05;;;;;;;;;;5053213;28;20070;-44
2023/02/10 14:12:25;;;;;;;10.07;5.10;;;;;;;;;;5067550;28;20017;-42
2023/02/10 14:14:51;;;;;;;12.82;5.30;;;;;;;;;;5068928;28;20108;-42
2023/02/10 14:17:32;;;;;;;12.63;4.97;;;;;;;;;;5059291;28;20021;-43
2023/02/10 14:19:58;;;;;;;9.65;5.32;;;;;;;;;;5064676;28;20444;-42
2023/02/10 14:22:35;;;;;;;9.93;4.68;;;;;;;;;;5052608;28;20056;-41
2023/02/10 14:25:14;;;;;;;9.68;5.07;;;;;;;;;;5070032;28;20037;-42
2023/02/10 14:27:41;;;;;;;8.43;5.03;;;;;;;;;;5072703;28;20033;-42
2023/02/10 14:30:19;;;;;;;15.68;5.53;;;;;;;;;;5065887;28;20024;-43
2023/02/10 14:32:45;;;;;;;8.00;4.85;;;;;;;;;;5059672;28;20115;-43
2023/02/10 14:35:21;;;;;;;8.85;5.18;;;;;;;;;;5057626;28;20037;-43
2023/02/10 14:37:50;;;;;;;11.18;4.57;;;;;;;;;;5066758;28;20028;-43
2023/02/10 14:40:17;;;;;;;9.30;6.28;;;;;;;;;;5059572;28;20025;-43
2023/02/10 14:42:43;;;;;;;9.10;5.40;;;;;;;;;;5062939;28;20028;-44
2023/02/10 14:45:19;;;;;;;7.50;4.90;;;;;;;;;;5061597;28;20098;-44
2023/02/10 14:47:48;;;;;;;12.35;5.40;;;;;;;;;;5060500;28;20424;-43
2023/02/10 14:50:25;;;;;;;8.00;5.47;;;;;;;;;;5059335;28;20392;-42
2023/02/10 14:52:51;;;;;;;8.40;4.95;;;;;;;;;;5067254;28;20029;-43
2023/02/10 14:55:34;;;;;;;8.80;5.25;;;;;;;;;;5066563;28;20466;-43
2023/02/10 14:58:10;;;;;;;8.27;5.32;;;;;;;;;;5061471;28;20021;-43